Thunder radar more information blitzortung!


Radar de pluja more information rain snow radar


Visita la nostra xarxa de llocs de meteo:

Template documentation
and downloads

And another site



No particular awareness of the weather is required.    There are no Weather-warnings

Pagina Historial Weather Underground text

Diari Resum Agost 23, 2017 Unitats:  Mètric    Imperial   Tant
« Previous Dia
SegĂźent Dia »
Diari Setmana Mensual Anual Personalitzada
  Maxima: Minima: Media:
Temperatura: -17.8 °C -7.4 °C -2.7 °C
Punt de rosada: -17.8 °C -11.6 °C -9 °C
Humitat: Humidity % 27 % 53 %
Wind Speed: 0 km/h 0 km/h 10.8 km/h
RĂ fegues de vent: 0 km/h - -
Vent:- - SSW
Pression baro: 0 hPa 34327.3 hPa -
Precipitacions: 0 mm    
Historical Graphs
 
 
Dades de taula per Agost 23, 2017
Temps Temperatura Punt de rosada Pression baro Vent Wind Speed RĂ fegues de vent Humitat Rainfall Rate (Hourly)
-17.8 °C -17.8 °C 0 hPa Calm     Humidity % 0 mm
00:02 -5.2 °C -7.9 °C 34395 hPa West 6 km/h 6 km/h 74 % 0 mm
00:05 -6.6 °C -8.2 °C 34361.1 hPa West 2.6 km/h 7.7 km/h 83 % 0 mm
00:15 -6.6 °C -8.4 °C 34361.1 hPa Calm   5.1 km/h 82 % 0 mm
00:25 -6.6 °C -8.3 °C 34361.1 hPa Calm   5.1 km/h 83 % 0 mm
00:35 -6.7 °C -8.3 °C 34361.1 hPa Calm   2.6 km/h 84 % 0 mm
00:45 -6.8 °C -8.4 °C 34361.1 hPa ENE 5.1 km/h 5.1 km/h 84 % 0 mm
00:55 -6.9 °C -8.4 °C 34361.1 hPa Calm   5.1 km/h 84 % 0 mm
01:05 -6.9 °C -8.5 °C 34361.1 hPa Calm   2.6 km/h 84 % 0 mm
01:10 -6.9 °C -8.5 °C 34361.1 hPa Calm     84 % 0 mm
01:20 -7.1 °C -8.6 °C 34361.1 hPa Calm   2.6 km/h 84 % 0 mm
01:30 -7.1 °C -8.6 °C 34361.1 hPa Calm   5.1 km/h 85 % 0 mm
01:40 -7.1 °C -8.5 °C 34361.1 hPa Calm   2.6 km/h 85 % 0 mm
01:50 -7.1 °C -8.5 °C 34361.1 hPa Calm   2.6 km/h 85 % 0 mm
02:00 -7.1 °C -8.5 °C 34361.1 hPa Calm     85 % 0 mm
02:10 -7.1 °C -8.6 °C 34361.1 hPa NNW 2.6 km/h 2.6 km/h 85 % 0 mm
02:20 -7.2 °C -8.6 °C 34361.1 hPa Calm   2.6 km/h 85 % 0 mm
02:30 -7.2 °C -8.5 °C 34361.1 hPa Calm   5.1 km/h 86 % 0 mm
02:40 -7.2 °C -8.5 °C 34361.1 hPa ESE 2.6 km/h 5.1 km/h 86 % 0 mm
02:50 -7.2 °C -8.6 °C 34361.1 hPa Calm   5.1 km/h 86 % 0 mm
03:00 -7.2 °C -8.6 °C 34361.1 hPa Calm   5.1 km/h 86 % 0 mm
03:10 -7.3 °C -8.5 °C 34361.1 hPa Calm   2.6 km/h 87 % 0 mm
03:20 -7.4 °C -8.7 °C 34395 hPa Calm     86 % 0 mm
03:30 -7.4 °C -8.7 °C 34395 hPa Calm     86 % 0 mm
03:40 -7.3 °C -8.7 °C 34395 hPa Calm     86 % 0 mm
03:50 -7.3 °C -8.6 °C 34395 hPa WSW 2.6 km/h 2.6 km/h 86 % 0 mm
04:00 -7.1 °C -8.4 °C 34395 hPa Calm   2.6 km/h 86 % 0 mm
04:10 -6.9 °C -8.5 °C 34395 hPa WSW 2.6 km/h 2.6 km/h 84 % 0 mm
04:20 -6.7 °C -8.4 °C 34395 hPa ENE 2.6 km/h 5.1 km/h 82 % 0 mm
04:30 -6.3 °C -8.6 °C 34395 hPa ENE 2.6 km/h 5.1 km/h 78 % 0 mm
04:40 -6.2 °C -8.6 °C 34395 hPa ENE 2.6 km/h 7.7 km/h 76 % 0 mm
04:50 -5.9 °C -8.6 °C 34395 hPa ENE 2.6 km/h 5.1 km/h 74 % 0 mm
05:00 -5.6 °C -8.7 °C 34395 hPa ENE 5.1 km/h 7.7 km/h 70 % 0 mm
05:10 -5.3 °C -8.8 °C 34395 hPa ENE 5.1 km/h 7.7 km/h 68 % 0 mm
10:13 -3.7 °C -7.7 °C 34428.8 hPa WSW 11.1 km/h 11.1 km/h 64 % 0 mm
10:14 -3.7 °C -7.7 °C 34428.8 hPa SW 11.9 km/h 11.9 km/h 64 % 0 mm
10:19 -3.5 °C -7.6 °C 34428.8 hPa SW 9.8 km/h 9.8 km/h 64 % 0 mm
10:24 -3.4 °C -7.6 °C 34428.8 hPa West 11.9 km/h 11.9 km/h 64 % 0 mm
10:29 -3.4 °C -7.4 °C 34395 hPa WSW 6 km/h 6 km/h 64 % 0 mm
10:34 -3.3 °C -7.3 °C 34395 hPa WSW 9 km/h 9 km/h 64 % 0 mm
10:39 -2.9 °C -7 °C 34395 hPa SE 6 km/h 6 km/h 64 % 0 mm
10:44 -3.1 °C -7.4 °C 34395 hPa East 6 km/h 6 km/h 62 % 0 mm
10:49 -3.1 °C -7.3 °C 34395 hPa SW 8 km/h 8 km/h 63 % 0 mm
10:54 -3 °C -7.1 °C 34395 hPa SW 9 km/h 9 km/h 64 % 0 mm
10:59 -2.8 °C -7.1 °C 34395 hPa SW 6 km/h 6 km/h 63 % 0 mm
11:04 -2.4 °C -6.8 °C 34395 hPa SW 9 km/h 9 km/h 62 % 0 mm
11:09 -2.6 °C -7.1 °C 34395 hPa NW 6 km/h 6 km/h 61 % 0 mm
11:14 -2.4 °C -7.3 °C 34428.8 hPa SSE 7.6 km/h 7.6 km/h 59 % 0 mm
11:19 -2.3 °C -7.3 °C 34428.8 hPa South 9.3 km/h 9.3 km/h 58 % 0 mm
11:24 -2 °C -7.1 °C 34428.8 hPa SE 9 km/h   58 % 0 mm
11:29 -1.9 °C -7 °C 34395 hPa SW 9 km/h 9 km/h 58 % 0 mm
11:34 -1.9 °C -7.1 °C 34395 hPa ENE 6 km/h 6 km/h 57 % 0 mm
11:39 -1.6 °C -7.3 °C 34395 hPa East 8 km/h 8 km/h 54 % 0 mm
11:44 -1.4 °C -7.3 °C 34395 hPa East 6 km/h 6 km/h 53 % 0 mm
11:49 -1.2 °C -6.9 °C 34395 hPa ESE 9 km/h 9 km/h 54 % 0 mm
11:54 -1.1 °C -7 °C 34395 hPa WSW 7.6 km/h 7.6 km/h 53 % 0 mm
11:59 -1.1 °C -7.6 °C 34395 hPa ENE 9 km/h 9 km/h 50 % 0 mm
12:04 -0.8 °C -7.1 °C 34395 hPa SW 7.6 km/h 8 km/h 51 % 0 mm
12:09 -0.9 °C -7.6 °C 34395 hPa WSW 11.9 km/h 11.9 km/h 49 % 0 mm
12:14 -1 °C -7.8 °C 34428.8 hPa SW 6.8 km/h 9.8 km/h 48 % 0 mm
12:19 -0.7 °C -8.1 °C 34428.8 hPa SSE 6 km/h 6 km/h 45 % 0 mm
12:24 -0.6 °C -8.2 °C 34428.8 hPa SSE 11.1 km/h 11.1 km/h 44 % 0 mm
12:29 -0.3 °C -7.7 °C 34395 hPa SSW 6 km/h 6 km/h 45 % 0 mm
12:30 -0.3 °C -7.7 °C 34395 hPa West 6 km/h 6 km/h 45 % 0 mm
12:35 0 °C -7.9 °C 34395 hPa SW 6 km/h 6 km/h 43 % 0 mm
12:40 -0.2 °C -8.1 °C 34395 hPa SSE 11.9 km/h 11.9 km/h 43 % 0 mm
12:45 -0.4 °C -8.4 °C 34395 hPa SSW 16.6 km/h 16.6 km/h 42 % 0 mm
12:50 -0.4 °C -8.1 °C 34395 hPa ESE 9.3 km/h 9.3 km/h 44 % 0 mm
12:55 -0.7 °C -7.9 °C 34395 hPa WSW 16.1 km/h 16.1 km/h 46 % 0 mm
13:00 -1 °C -8.2 °C 34361.1 hPa SE 15 km/h 15 km/h 46 % 0 mm
13:05 -0.5 °C -7.7 °C 34361.1 hPa West 8 km/h 8 km/h 46 % 0 mm
13:10 -0.6 °C -7.8 °C 34361.1 hPa SW 16.6 km/h 16.6 km/h 46 % 0 mm
13:15 -0.4 °C -7.7 °C 34395 hPa SSW 15.3 km/h 15.3 km/h 46 % 0 mm
13:20 -0.4 °C -7.7 °C 34395 hPa WSW 15 km/h 15 km/h 46 % 0 mm
13:25 -0.1 °C -7.6 °C 34395 hPa SE 9.3 km/h 9.3 km/h 45 % 0 mm
13:30 0 °C -7.4 °C 34395 hPa West 9 km/h 9 km/h 45 % 0 mm
13:35 0 °C -7.7 °C 34395 hPa NNE 9 km/h 9 km/h 44 % 0 mm
13:40 0.2 °C -7.3 °C 34395 hPa SW 17.9 km/h 17.9 km/h 45 % 0 mm
13:45 0.2 °C -7.7 °C 34428.8 hPa South 9 km/h 9 km/h 43 % 0 mm
13:50 0.6 °C -7.3 °C 34428.8 hPa SW 17.9 km/h 17.9 km/h 43 % 0 mm
13:55 0.3 °C -7.6 °C 34428.8 hPa ESE 15.3 km/h 15.3 km/h 43 % 0 mm
14:00 0.2 °C -7.4 °C 34395 hPa NNW 15 km/h 15 km/h 44 % 0 mm
14:05 0.4 °C -7.3 °C 34395 hPa SSE 17.9 km/h 17.9 km/h 44 % 0 mm
14:10 0.7 °C -7.4 °C 34395 hPa West 6 km/h 6.3 km/h 42 % 0 mm
14:15 1 °C -7.2 °C 34395 hPa SW 15 km/h 15 km/h 42 % 0 mm
14:20 0.9 °C -7.2 °C 34395 hPa SW 15.3 km/h 15.3 km/h 42 % 0 mm
14:25 0.8 °C -7.6 °C 34395 hPa WSW 15 km/h 15 km/h 41 % 0 mm
14:30 0.8 °C -7.8 °C 34395 hPa SSW 20.9 km/h 20.9 km/h 40 % 0 mm
14:35 0.8 °C -7.8 °C 34395 hPa West 20.9 km/h 20.9 km/h 40 % 0 mm
14:40 1 °C -7.6 °C 34395 hPa WSW 15 km/h 15 km/h 40 % 0 mm
14:45 0.9 °C -8.2 °C 34361.1 hPa SW 23.8 km/h 23.8 km/h 38 % 0 mm
14:50 0.7 °C -8.4 °C 34361.1 hPa WSW 23.8 km/h 23.8 km/h 38 % 0 mm
14:55 0.8 °C -8.5 °C 34361.1 hPa WSW 20.9 km/h 20.9 km/h 37 % 0 mm
15:00 0.8 °C -8.5 °C 34361.1 hPa WSW 17.9 km/h 17.9 km/h 37 % 0 mm
15:05 0.8 °C -8.7 °C 34361.1 hPa South 20.9 km/h 20.9 km/h 36 % 0 mm
15:10 0.8 °C -8.7 °C 34361.1 hPa South 7.6 km/h 7.6 km/h 36 % 0 mm
15:15 1 °C -8.5 °C 34361.1 hPa West 17.9 km/h 17.9 km/h 36 % 0 mm
15:20 1.1 °C -8.5 °C 34361.1 hPa SSW 17.9 km/h 17.9 km/h 36 % 0 mm
15:25 0.9 °C -8.8 °C 34361.1 hPa South 23.8 km/h 23.8 km/h 35 % 0 mm
15:30 0.8 °C -9.2 °C 34361.1 hPa SW 17.9 km/h 17.9 km/h 34 % 0 mm
15:35 0.9 °C -9.7 °C 34361.1 hPa SW 20.9 km/h 20.9 km/h 32 % 0 mm
15:40 1 °C -9.8 °C 34361.1 hPa West 17.9 km/h 17.9 km/h 31 % 0 mm
15:45 1 °C -10.1 °C 34327.3 hPa SE 17.9 km/h 17.9 km/h 30 % 0 mm
15:50 0.9 °C -10.4 °C 34327.3 hPa West 16.1 km/h 16.1 km/h 29 % 0 mm
15:55 1.2 °C -10.5 °C 34327.3 hPa SSE 17.9 km/h 17.9 km/h 28 % 0 mm
16:00 1.1 °C -10.9 °C 34361.1 hPa South 26.9 km/h 26.9 km/h 27 % 0 mm
16:05 1.2 °C -10.6 °C 34361.1 hPa SW 26.9 km/h 26.9 km/h 28 % 0 mm
16:10 1 °C -11 °C 34361.1 hPa SW 15 km/h 15 km/h 27 % 0 mm
16:15 1 °C -11 °C 34361.1 hPa SW 20.9 km/h 20.9 km/h 27 % 0 mm
16:20 1.1 °C -10.9 °C 34361.1 hPa WSW 26.9 km/h 26.9 km/h 27 % 0 mm
16:25 0.7 °C -11.2 °C 34361.1 hPa West 26.9 km/h 26.9 km/h 27 % 0 mm
16:30 0.6 °C -11.4 °C 34361.1 hPa SW 26.9 km/h 26.9 km/h 27 % 0 mm
16:35 0.8 °C -11.2 °C 34361.1 hPa South 20.9 km/h 20.9 km/h 27 % 0 mm
16:40 0.7 °C -10.9 °C 34361.1 hPa SSW 16.1 km/h 16.1 km/h 28 % 0 mm
16:45 0.3 °C -11.6 °C 34361.1 hPa SW 20.9 km/h 20.9 km/h 27 % 0 mm
16:50 -0.1 °C -11.3 °C 34361.1 hPa SSW 20.9 km/h 20.9 km/h 29 % 0 mm
16:55 0.2 °C -11.1 °C 34361.1 hPa SSW 17.9 km/h 17.9 km/h 29 % 0 mm
17:00 0.4 °C -10.9 °C 34361.1 hPa SW 22 km/h 22 km/h 29 % 0 mm
17:05 0.3 °C -10.7 °C 34361.1 hPa SW 15 km/h 15 km/h 30 % 0 mm
17:10 -0.1 °C -11.3 °C 34361.1 hPa WSW 23.8 km/h 23.8 km/h 29 % 0 mm
17:15 0 °C -11.3 °C 34361.1 hPa SSW 20.9 km/h 20.9 km/h 29 % 0 mm
17:20 0.1 °C -11.2 °C 34361.1 hPa SW 14.5 km/h 14.5 km/h 29 % 0 mm
17:25 0 °C -11.6 °C 34361.1 hPa SSW 32.8 km/h 32.8 km/h 28 % 0 mm
17:30 0 °C -11.3 °C 34361.1 hPa WSW 17.9 km/h 17.9 km/h 29 % 0 mm
17:35 0.2 °C -10.8 °C 34361.1 hPa SSW 20.9 km/h 20.9 km/h 30 % 0 mm
17:40 -0.1 °C -11 °C 34361.1 hPa South 17.9 km/h 17.9 km/h 30 % 0 mm
17:45 -0.3 °C -11.6 °C 34361.1 hPa WSW 23.8 km/h 23.8 km/h 29 % 0 mm
17:50 -0.5 °C -11.4 °C 34361.1 hPa SSW 15 km/h 15 km/h 30 % 0 mm
17:55 -0.6 °C -11.4 °C 34361.1 hPa SSW 23.8 km/h 23.8 km/h 30 % 0 mm
18:00 -0.6 °C -11.2 °C 34361.1 hPa SSW 20.9 km/h 20.9 km/h 31 % 0 mm
18:05 -0.6 °C -10.9 °C 34361.1 hPa SSE 10.3 km/h 10.3 km/h 32 % 0 mm
18:10 -0.4 °C -10.8 °C 34361.1 hPa WSW 20.9 km/h 20.9 km/h 32 % 0 mm
18:15 -0.3 °C -11 °C 34361.1 hPa SW 15 km/h 15 km/h 31 % 0 mm
18:20 -0.7 °C -11.6 °C 34361.1 hPa SW 29.8 km/h 29.8 km/h 30 % 0 mm
18:25 -1 °C -11.6 °C 34361.1 hPa SW 20.9 km/h 20.9 km/h 31 % 0 mm
18:30 -1.2 °C -11.5 °C 34361.1 hPa SW 20.9 km/h 20.9 km/h 32 % 0 mm
18:35 -1.3 °C -11.6 °C 34361.1 hPa SSW 17.9 km/h 17.9 km/h 32 % 0 mm
18:40 -1.4 °C -11.3 °C 34361.1 hPa SW 15.3 km/h 15.3 km/h 33 % 0 mm
18:45 -1.5 °C -10.9 °C 34361.1 hPa SSW 11.9 km/h 11.9 km/h 35 % 0 mm
18:50 -1.6 °C -10.8 °C 34361.1 hPa SW 17.9 km/h 17.9 km/h 36 % 0 mm
18:55 -1.4 °C -10.7 °C 34361.1 hPa SW 10.3 km/h 10.3 km/h 36 % 0 mm
19:00 -1.5 °C -10.7 °C 34361.1 hPa SW 17.9 km/h 17.9 km/h 36 % 0 mm
19:05 -1.7 °C -10.7 °C 34361.1 hPa SSW 15.3 km/h 15.3 km/h 37 % 0 mm
19:10 -1.9 °C -10.7 °C 34361.1 hPa SW 15 km/h 15 km/h 38 % 0 mm
19:15 -2.1 °C -10.8 °C 34361.1 hPa SW 7.6 km/h 7.6 km/h 38 % 0 mm
19:20 -2.2 °C -10.7 °C 34361.1 hPa West 17.9 km/h 17.9 km/h 39 % 0 mm
19:25 -2.3 °C -10.7 °C 34361.1 hPa SW 15 km/h 15 km/h 39 % 0 mm
19:30 -2.4 °C -10.9 °C 34361.1 hPa SW 11.9 km/h 11.9 km/h 39 % 0 mm
19:35 -2.5 °C -10.9 °C 34361.1 hPa West 3.1 km/h   39 % 0 mm
19:40 -2.6 °C -11 °C 34361.1 hPa WSW 6 km/h 6 km/h 39 % 0 mm
19:45 -2.6 °C -11 °C 34361.1 hPa WSW 11.1 km/h 11.1 km/h 39 % 0 mm
19:50 -2.6 °C -10.8 °C 34361.1 hPa SW 14 km/h 14 km/h 40 % 0 mm
19:55 -2.7 °C -10.9 °C 34361.1 hPa SW 15 km/h 15 km/h 40 % 0 mm
20:00 -2.8 °C -10.8 °C 34395 hPa SSW 11.9 km/h 11.9 km/h 41 % 0 mm
20:05 -2.9 °C -10.5 °C 34395 hPa SSW 15 km/h 15 km/h 43 % 0 mm
20:10 -3 °C -10.6 °C 34395 hPa SW 6 km/h 6 km/h 43 % 0 mm
20:15 -3.1 °C -10.4 °C 34361.1 hPa SW 9.8 km/h 9.8 km/h 44 % 0 mm
20:20 -3.1 °C -10.3 °C 34361.1 hPa SW 6 km/h 6 km/h 45 % 0 mm
20:25 -3.2 °C -10.2 °C 34361.1 hPa SSW 9 km/h 9 km/h 46 % 0 mm
20:30 -3.3 °C -10.1 °C 34361.1 hPa SSW 11.9 km/h 11.9 km/h 47 % 0 mm
20:35 -3.3 °C -10.1 °C 34361.1 hPa SW 9 km/h 9 km/h 47 % 0 mm
20:40 -3.4 °C -9.9 °C 34361.1 hPa SW 9 km/h 9 km/h 48 % 0 mm
20:45 -3.5 °C -9.9 °C 34395 hPa SW 17.9 km/h 17.9 km/h 49 % 0 mm
20:50 -3.6 °C -9.8 °C 34395 hPa SW 15.6 km/h 15.6 km/h 50 % 0 mm
20:55 -3.6 °C -9.8 °C 34395 hPa WSW 15 km/h 15 km/h 50 % 0 mm
21:00 -3.7 °C -9.7 °C 34361.1 hPa West 11.9 km/h 11.9 km/h 51 % 0 mm
21:05 -3.7 °C -9.8 °C 34361.1 hPa West 11.9 km/h 11.9 km/h 51 % 0 mm
21:10 -3.8 °C -9.6 °C 34361.1 hPa SW 9 km/h 9 km/h 52 % 0 mm
21:15 -3.8 °C -9.6 °C 34361.1 hPa SW 11.9 km/h 11.9 km/h 52 % 0 mm
21:20 -3.9 °C -9.4 °C 34361.1 hPa SW 15 km/h 15 km/h 54 % 0 mm
21:25 -3.9 °C -9.3 °C 34361.1 hPa NW 9 km/h 9 km/h 55 % 0 mm
21:30 -4 °C -9.1 °C 34361.1 hPa SW 9 km/h 9 km/h 57 % 0 mm
21:35 -4 °C -9.1 °C 34361.1 hPa WSW 9 km/h 9 km/h 57 % 0 mm
21:40 -4.1 °C -8.9 °C 34361.1 hPa SW 6 km/h 6 km/h 58 % 0 mm
21:45 -4.1 °C -8.8 °C 34395 hPa WSW 6.3 km/h 6.3 km/h 59 % 0 mm
21:50 -4.1 °C -8.8 °C 34395 hPa SW 9 km/h 9 km/h 59 % 0 mm
21:55 -4.2 °C -8.8 °C 34395 hPa SW 6 km/h 6 km/h 60 % 0 mm
22:00 -4.2 °C -8.8 °C 34395 hPa SSW 6 km/h 6 km/h 60 % 0 mm
22:05 -4.3 °C -8.9 °C 34395 hPa WSW 9.8 km/h 9.8 km/h 60 % 0 mm
22:10 -4.4 °C -8.7 °C 34395 hPa SW 6.8 km/h 6.8 km/h 62 % 0 mm
22:15 -4.4 °C -8.7 °C 34395 hPa South 9.3 km/h 9.3 km/h 62 % 0 mm
22:20 -4.4 °C -8.7 °C 34395 hPa SSW 9.8 km/h 9.8 km/h 62 % 0 mm
22:25 -4.5 °C -8.5 °C 34395 hPa West 6.8 km/h 6.8 km/h 64 % 0 mm
22:30 -4.5 °C -8.4 °C 34395 hPa SW 8.5 km/h 8.5 km/h 65 % 0 mm
22:35 -4.6 °C -8.4 °C 34395 hPa SW 6 km/h 6 km/h 65 % 0 mm
22:40 -4.6 °C -8.4 °C 34395 hPa SW 6.8 km/h 6.8 km/h 66 % 0 mm
22:42 -4.6 °C -8.4 °C 34361.1 hPa West 6.8 km/h 6.8 km/h 66 % 0 mm
22:47 -4.6 °C -8.4 °C 34361.1 hPa West 3.1 km/h 3.7 km/h 66 % 0 mm
22:50 -5.7 °C -8.2 °C 34361.1 hPa SW 5.1 km/h 7.7 km/h 75 % 0 mm
22:52 -4.7 °C -8.2 °C 34361.1 hPa Calm     68 % 0 mm
22:57 -4.7 °C -8.4 °C 34395 hPa West 6 km/h 6 km/h 66 % 0 mm
23:00 -5.6 °C -8.1 °C 34361.1 hPa WSW 5.1 km/h 5.1 km/h 76 % 0 mm
23:02 -4.7 °C -8.2 °C 34395 hPa SW 6 km/h   68 % 0 mm
23:07 -4.7 °C -8.2 °C 34395 hPa SW 6 km/h 6 km/h 68 % 0 mm
23:10 -5.6 °C -8 °C 34361.1 hPa SW 5.1 km/h 5.1 km/h 76 % 0 mm
23:12 -4.7 °C -8.2 °C 34395 hPa SW 6 km/h 6 km/h 68 % 0 mm
23:17 -4.7 °C -8.2 °C 34395 hPa SW 6 km/h 6 km/h 68 % 0 mm
23:20 -5.5 °C -7.9 °C 34361.1 hPa WSW 5.1 km/h 7.7 km/h 76 % 0 mm
23:22 -4.8 °C -8.3 °C 34395 hPa SW 8 km/h 8 km/h 68 % 0 mm
23:27 -4.8 °C -8.2 °C 34395 hPa SSW 6 km/h 6 km/h 69 % 0 mm
23:30 -5.6 °C -8 °C 34395 hPa WSW 5.1 km/h 7.7 km/h 76 % 0 mm
23:32 -4.8 °C -8.2 °C 34395 hPa SSW 6.3 km/h 6.3 km/h 69 % 0 mm
23:37 -4.9 °C -8.1 °C 34395 hPa SW 6 km/h 6 km/h 70 % 0 mm
23:40 -5.6 °C -8 °C 34395 hPa WSW 7.7 km/h 15.6 km/h 76 % 0 mm
23:42 -4.8 °C -8.1 °C 34395 hPa SW 6 km/h 6 km/h 70 % 0 mm
23:47 -4.9 °C -8.1 °C 34395 hPa WSW 6 km/h 6 km/h 70 % 0 mm
23:50 -5.6 °C -8 °C 34361.1 hPa WSW 2.6 km/h 7.7 km/h 76 % 0 mm
23:52 -4.9 °C -8.1 °C 34395 hPa SW 6 km/h 6 km/h 70 % 0 mm
23:57 -4.9 °C -8.1 °C 34395 hPa SW 8.5 km/h 8.5 km/h 70 % 0 mm
Meteo Sesrovires
Elogis d' Weather Underground - 2 mb

Guio original per  Jim McMurry - jmcmurry@mwt.net Adaptat per a la plantilla per  Wim van der Kuil - Leuven-Template.eu

Trobareu la nostra informacio del temps tambe a:

Weather Underground

AWEKAS